sensor_id;sensor_type;location;lat;lon;timestamp;temperature;humidity
10443;DHT22;5269;51.146;16.986;2023-06-14T00:01:57;10.90;1.00
10443;DHT22;5269;51.146;16.986;2023-06-14T00:04:24;11.00;1.00
10443;DHT22;5269;51.146;16.986;2023-06-14T00:06:53;10.90;1.00
10443;DHT22;5269;51.146;16.986;2023-06-14T00:09:24;10.80;1.00
10443;DHT22;5269;51.146;16.986;2023-06-14T00:11:51;10.80;99.90
10443;DHT22;5269;51.146;16.986;2023-06-14T00:14:27;10.70;1.00
10443;DHT22;5269;51.146;16.986;2023-06-14T00:16:56;10.70;1.00
10443;DHT22;5269;51.146;16.986;2023-06-14T00:19:24;10.70;1.00
10443;DHT22;5269;51.146;16.986;2023-06-14T00:21:51;10.70;1.00
10443;DHT22;5269;51.146;16.986;2023-06-14T00:24:19;10.70;1.00
10443;DHT22;5269;51.146;16.986;2023-06-14T00:26:46;10.70;1.00
10443;DHT22;5269;51.146;16.986;2023-06-14T00:29:13;10.70;1.00
10443;DHT22;5269;51.146;16.986;2023-06-14T00:31:42;10.70;1.00
10443;DHT22;5269;51.146;16.986;2023-06-14T00:34:08;10.60;1.00
10443;DHT22;5269;51.146;16.986;2023-06-14T00:36:35;10.70;1.00
10443;DHT22;5269;51.146;16.986;2023-06-14T00:39:02;10.60;85.50
10443;DHT22;5269;51.146;16.986;2023-06-14T00:41:30;10.70;43.60
10443;DHT22;5269;51.146;16.986;2023-06-14T00:43:57;10.60;99.90
10443;DHT22;5269;51.146;16.986;2023-06-14T00:46:25;10.70;99.90
10443;DHT22;5269;51.146;16.986;2023-06-14T00:48:56;10.60;1.00
10443;DHT22;5269;51.146;16.986;2023-06-14T00:51:23;10.60;1.00
10443;DHT22;5269;51.146;16.986;2023-06-14T00:53:53;10.50;99.90
10443;DHT22;5269;51.146;16.986;2023-06-14T00:56:20;10.50;1.00
10443;DHT22;5269;51.146;16.986;2023-06-14T00:58:58;10.50;1.00
10443;DHT22;5269;51.146;16.986;2023-06-14T01:01:25;10.40;1.00
10443;DHT22;5269;51.146;16.986;2023-06-14T01:03:55;10.40;1.00
10443;DHT22;5269;51.146;16.986;2023-06-14T01:06:33;10.30;99.90
10443;DHT22;5269;51.146;16.986;2023-06-14T01:09:12;10.30;3.50
10443;DHT22;5269;51.146;16.986;2023-06-14T01:11:48;10.40;1.00
10443;DHT22;5269;51.146;16.986;2023-06-14T01:14:24;10.40;1.00
10443;DHT22;5269;51.146;16.986;2023-06-14T01:16:52;10.30;1.00
10443;DHT22;5269;51.146;16.986;2023-06-14T01:19:22;10.20;1.00
10443;DHT22;5269;51.146;16.986;2023-06-14T01:21:51;10.20;81.30
10443;DHT22;5269;51.146;16.986;2023-06-14T01:24:19;10.10;99.90
10443;DHT22;5269;51.146;16.986;2023-06-14T01:26:54;10.00;1.00
10443;DHT22;5269;51.146;16.986;2023-06-14T01:29:22;10.00;99.90
10443;DHT22;5269;51.146;16.986;2023-06-14T01:31:55;10.00;99.90
10443;DHT22;5269;51.146;16.986;2023-06-14T01:34:22;10.00;99.90
10443;DHT22;5269;51.146;16.986;2023-06-14T01:36:50;9.90;99.90
10443;DHT22;5269;51.146;16.986;2023-06-14T01:39:18;9.90;99.90
10443;DHT22;5269;51.146;16.986;2023-06-14T01:41:47;9.80;99.90
10443;DHT22;5269;51.146;16.986;2023-06-14T01:44:16;9.90;99.90
10443;DHT22;5269;51.146;16.986;2023-06-14T01:46:44;9.80;99.90
10443;DHT22;5269;51.146;16.986;2023-06-14T01:49:14;9.90;99.90
10443;DHT22;5269;51.146;16.986;2023-06-14T01:51:41;9.90;99.90
10443;DHT22;5269;51.146;16.986;2023-06-14T01:54:08;9.90;99.90
10443;DHT22;5269;51.146;16.986;2023-06-14T01:56:38;10.00;99.90
10443;DHT22;5269;51.146;16.986;2023-06-14T01:59:05;10.00;99.90
10443;DHT22;5269;51.146;16.986;2023-06-14T02:01:34;10.10;99.90
10443;DHT22;5269;51.146;16.986;2023-06-14T02:04:04;10.00;99.90
10443;DHT22;5269;51.146;16.986;2023-06-14T02:06:31;10.00;99.90
10443;DHT22;5269;51.146;16.986;2023-06-14T02:09:04;9.90;99.90
10443;DHT22;5269;51.146;16.986;2023-06-14T02:11:31;9.80;99.90
10443;DHT22;5269;51.146;16.986;2023-06-14T02:14:04;9.80;99.90
10443;DHT22;5269;51.146;16.986;2023-06-14T02:16:32;9.70;99.90
10443;DHT22;5269;51.146;16.986;2023-06-14T02:19:01;9.70;99.90
10443;DHT22;5269;51.146;16.986;2023-06-14T02:21:34;9.70;99.90
10443;DHT22;5269;51.146;16.986;2023-06-14T02:24:03;9.70;99.90
10443;DHT22;5269;51.146;16.986;2023-06-14T02:26:31;9.80;99.90
10443;DHT22;5269;51.146;16.986;2023-06-14T02:29:04;9.80;99.90
10443;DHT22;5269;51.146;16.986;2023-06-14T02:31:31;9.90;99.90
10443;DHT22;5269;51.146;16.986;2023-06-14T02:33:58;9.80;99.90
10443;DHT22;5269;51.146;16.986;2023-06-14T02:36:26;9.90;99.90
10443;DHT22;5269;51.146;16.986;2023-06-14T02:38:57;10.00;99.90
10443;DHT22;5269;51.146;16.986;2023-06-14T02:41:25;10.00;99.90
10443;DHT22;5269;51.146;16.986;2023-06-14T02:43:58;10.00;99.90
10443;DHT22;5269;51.146;16.986;2023-06-14T02:46:26;9.90;99.90
10443;DHT22;5269;51.146;16.986;2023-06-14T02:48:53;9.80;99.90
10443;DHT22;5269;51.146;16.986;2023-06-14T02:51:26;9.60;99.90
10443;DHT22;5269;51.146;16.986;2023-06-14T02:53:53;9.50;99.90
10443;DHT22;5269;51.146;16.986;2023-06-14T02:56:20;9.50;99.90
10443;DHT22;5269;51.146;16.986;2023-06-14T02:58:48;9.50;99.90
10443;DHT22;5269;51.146;16.986;2023-06-14T03:01:16;9.60;99.90
10443;DHT22;5269;51.146;16.986;2023-06-14T03:03:45;9.70;99.90
10443;DHT22;5269;51.146;16.986;2023-06-14T03:06:17;9.80;99.90
10443;DHT22;5269;51.146;16.986;2023-06-14T03:08:46;9.70;99.90
10443;DHT22;5269;51.146;16.986;2023-06-14T03:11:14;9.80;99.90
10443;DHT22;5269;51.146;16.986;2023-06-14T03:13:42;9.90;99.90
10443;DHT22;5269;51.146;16.986;2023-06-14T03:16:11;10.00;99.90
10443;DHT22;5269;51.146;16.986;2023-06-14T03:18:39;10.10;99.90
10443;DHT22;5269;51.146;16.986;2023-06-14T03:21:10;9.90;99.90
10443;DHT22;5269;51.146;16.986;2023-06-14T03:23:37;10.00;99.90
10443;DHT22;5269;51.146;16.986;2023-06-14T03:26:04;10.00;99.90
10443;DHT22;5269;51.146;16.986;2023-06-14T03:28:31;10.10;99.90
10443;DHT22;5269;51.146;16.986;2023-06-14T03:30:59;10.20;99.90
10443;DHT22;5269;51.146;16.986;2023-06-14T03:33:32;10.30;99.90
10443;DHT22;5269;51.146;16.986;2023-06-14T03:36:01;10.50;99.90
10443;DHT22;5269;51.146;16.986;2023-06-14T03:38:32;10.60;99.90
10443;DHT22;5269;51.146;16.986;2023-06-14T03:41:02;10.60;99.90
10443;DHT22;5269;51.146;16.986;2023-06-14T03:43:29;10.80;99.90
10443;DHT22;5269;51.146;16.986;2023-06-14T03:45:56;10.80;99.90
10443;DHT22;5269;51.146;16.986;2023-06-14T03:48:23;11.00;99.90
10443;DHT22;5269;51.146;16.986;2023-06-14T03:50:51;11.20;99.90
10443;DHT22;5269;51.146;16.986;2023-06-14T03:53:26;11.20;99.90
10443;DHT22;5269;51.146;16.986;2023-06-14T03:55:56;11.20;99.90
10443;DHT22;5269;51.146;16.986;2023-06-14T03:58:23;11.30;99.90
10443;DHT22;5269;51.146;16.986;2023-06-14T04:00:52;11.20;99.90
10443;DHT22;5269;51.146;16.986;2023-06-14T04:03:19;11.20;99.90
10443;DHT22;5269;51.146;16.986;2023-06-14T04:05:54;11.20;99.90
10443;DHT22;5269;51.146;16.986;2023-06-14T04:08:23;11.40;99.90
10443;DHT22;5269;51.146;16.986;2023-06-14T04:10:51;11.40;99.90
10443;DHT22;5269;51.146;16.986;2023-06-14T04:13:24;11.30;99.90
10443;DHT22;5269;51.146;16.986;2023-06-14T04:15:53;11.30;99.90
10443;DHT22;5269;51.146;16.986;2023-06-14T04:18:22;11.30;99.90
10443;DHT22;5269;51.146;16.986;2023-06-14T04:20:51;11.30;99.90
10443;DHT22;5269;51.146;16.986;2023-06-14T04:23:19;11.40;99.90
10443;DHT22;5269;51.146;16.986;2023-06-14T04:25:47;11.50;99.90
10443;DHT22;5269;51.146;16.986;2023-06-14T04:28:15;11.60;99.90
10443;DHT22;5269;51.146;16.986;2023-06-14T04:30:45;11.70;99.90
10443;DHT22;5269;51.146;16.986;2023-06-14T04:33:13;11.80;99.90
10443;DHT22;5269;51.146;16.986;2023-06-14T04:35:43;12.00;99.90
10443;DHT22;5269;51.146;16.986;2023-06-14T04:38:16;12.10;99.90
10443;DHT22;5269;51.146;16.986;2023-06-14T04:40:46;12.40;99.90
10443;DHT22;5269;51.146;16.986;2023-06-14T04:43:13;12.50;99.90
10443;DHT22;5269;51.146;16.986;2023-06-14T04:45:40;12.80;99.90
10443;DHT22;5269;51.146;16.986;2023-06-14T04:48:15;12.70;99.90
10443;DHT22;5269;51.146;16.986;2023-06-14T04:50:46;13.00;99.90
10443;DHT22;5269;51.146;16.986;2023-06-14T04:53:13;13.30;94.80
10443;DHT22;5269;51.146;16.986;2023-06-14T04:55:40;13.50;1.00
10443;DHT22;5269;51.146;16.986;2023-06-14T04:58:19;13.60;1.00
10443;DHT22;5269;51.146;16.986;2023-06-14T05:00:57;13.80;99.90
10443;DHT22;5269;51.146;16.986;2023-06-14T05:03:26;13.60;1.00
10443;DHT22;5269;51.146;16.986;2023-06-14T05:05:56;13.70;1.00
10443;DHT22;5269;51.146;16.986;2023-06-14T05:08:27;13.60;99.90
10443;DHT22;5269;51.146;16.986;2023-06-14T05:10:55;13.50;99.90
10443;DHT22;5269;51.146;16.986;2023-06-14T05:13:28;13.50;99.90
10443;DHT22;5269;51.146;16.986;2023-06-14T05:15:56;13.50;99.90
10443;DHT22;5269;51.146;16.986;2023-06-14T05:18:23;13.60;45.20
10443;DHT22;5269;51.146;16.986;2023-06-14T05:20:58;13.80;99.90
10443;DHT22;5269;51.146;16.986;2023-06-14T05:23:25;14.00;1.00
10443;DHT22;5269;51.146;16.986;2023-06-14T05:25:58;14.10;99.90
10443;DHT22;5269;51.146;16.986;2023-06-14T05:28:36;14.20;29.70
10443;DHT22;5269;51.146;16.986;2023-06-14T05:31:06;14.40;1.00
10443;DHT22;5269;51.146;16.986;2023-06-14T05:33:35;14.30;1.00
10443;DHT22;5269;51.146;16.986;2023-06-14T05:36:06;14.50;1.00
10443;DHT22;5269;51.146;16.986;2023-06-14T05:38:35;14.50;1.00
10443;DHT22;5269;51.146;16.986;2023-06-14T05:41:06;14.10;99.90
10443;DHT22;5269;51.146;16.986;2023-06-14T05:43:39;14.20;99.90
10443;DHT22;5269;51.146;16.986;2023-06-14T05:46:19;14.50;99.90
10443;DHT22;5269;51.146;16.986;2023-06-14T05:48:56;14.60;99.90
10443;DHT22;5269;51.146;16.986;2023-06-14T05:51:27;14.70;18.20
10443;DHT22;5269;51.146;16.986;2023-06-14T05:53:54;14.30;1.00
10443;DHT22;5269;51.146;16.986;2023-06-14T05:56:29;14.40;1.00
10443;DHT22;5269;51.146;16.986;2023-06-14T05:59:08;14.50;99.90
10443;DHT22;5269;51.146;16.986;2023-06-14T06:01:38;14.40;1.00
10443;DHT22;5269;51.146;16.986;2023-06-14T06:04:06;14.50;99.90
10443;DHT22;5269;51.146;16.986;2023-06-14T06:06:36;14.60;1.00
10443;DHT22;5269;51.146;16.986;2023-06-14T06:09:05;14.50;1.00
10443;DHT22;5269;51.146;16.986;2023-06-14T06:11:38;14.50;1.00
10443;DHT22;5269;51.146;16.986;2023-06-14T06:14:07;14.50;99.90
10443;DHT22;5269;51.146;16.986;2023-06-14T06:16:35;14.60;80.80
10443;DHT22;5269;51.146;16.986;2023-06-14T06:19:02;14.90;1.00
10443;DHT22;5269;51.146;16.986;2023-06-14T06:21:33;15.20;99.90
10443;DHT22;5269;51.146;16.986;2023-06-14T06:24:06;15.30;1.00
10443;DHT22;5269;51.146;16.986;2023-06-14T06:26:35;15.50;99.90
10443;DHT22;5269;51.146;16.986;2023-06-14T06:29:05;15.50;99.90
10443;DHT22;5269;51.146;16.986;2023-06-14T06:31:38;15.70;99.90
10443;DHT22;5269;51.146;16.986;2023-06-14T06:34:05;15.90;1.00
10443;DHT22;5269;51.146;16.986;2023-06-14T06:36:35;15.80;1.00
10443;DHT22;5269;51.146;16.986;2023-06-14T06:39:06;15.70;1.00
10443;DHT22;5269;51.146;16.986;2023-06-14T06:41:35;15.90;1.00
10443;DHT22;5269;51.146;16.986;2023-06-14T06:44:05;16.10;1.00
10443;DHT22;5269;51.146;16.986;2023-06-14T06:46:32;16.20;1.00
10443;DHT22;5269;51.146;16.986;2023-06-14T06:49:06;16.10;1.00
10443;DHT22;5269;51.146;16.986;2023-06-14T06:51:36;16.20;1.00
10443;DHT22;5269;51.146;16.986;2023-06-14T06:54:07;16.40;1.00
10443;DHT22;5269;51.146;16.986;2023-06-14T06:56:34;16.40;99.90
10443;DHT22;5269;51.146;16.986;2023-06-14T06:59:01;16.60;99.90
10443;DHT22;5269;51.146;16.986;2023-06-14T07:01:35;16.70;99.90
10443;DHT22;5269;51.146;16.986;2023-06-14T07:04:04;16.80;1.00
10443;DHT22;5269;51.146;16.986;2023-06-14T07:06:35;17.00;1.00
10443;DHT22;5269;51.146;16.986;2023-06-14T07:09:06;17.00;1.00
10443;DHT22;5269;51.146;16.986;2023-06-14T07:12:46;16.90;1.00
10443;DHT22;5269;51.146;16.986;2023-06-14T07:15:19;16.80;2.30
10443;DHT22;5269;51.146;16.986;2023-06-14T07:20:48;16.60;1.00
10443;DHT22;5269;51.146;16.986;2023-06-14T07:23:15;16.80;99.90
10443;DHT22;5269;51.146;16.986;2023-06-14T07:25:46;17.00;90.60
10443;DHT22;5269;51.146;16.986;2023-06-14T07:28:16;17.40;1.00
10443;DHT22;5269;51.146;16.986;2023-06-14T07:30:46;17.50;99.90
10443;DHT22;5269;51.146;16.986;2023-06-14T07:33:15;17.70;99.90
10443;DHT22;5269;51.146;16.986;2023-06-14T07:35:43;17.70;99.90
10443;DHT22;5269;51.146;16.986;2023-06-14T07:38:19;17.00;1.00
10443;DHT22;5269;51.146;16.986;2023-06-14T07:40:47;16.60;99.90
10443;DHT22;5269;51.146;16.986;2023-06-14T07:43:16;16.30;99.90
10443;DHT22;5269;51.146;16.986;2023-06-14T07:45:45;16.60;99.90
10443;DHT22;5269;51.146;16.986;2023-06-14T07:48:14;16.60;31.10
10443;DHT22;5269;51.146;16.986;2023-06-14T07:50:49;16.60;1.00
10443;DHT22;5269;51.146;16.986;2023-06-14T07:53:39;16.50;99.90
10443;DHT22;5269;51.146;16.986;2023-06-14T07:56:18;16.70;91.00
10443;DHT22;5269;51.146;16.986;2023-06-14T07:58:46;17.00;1.00
10443;DHT22;5269;51.146;16.986;2023-06-14T08:01:24;17.20;99.90
10443;DHT22;5269;51.146;16.986;2023-06-14T08:04:05;16.90;1.00
10443;DHT22;5269;51.146;16.986;2023-06-14T08:06:35;17.40;1.00
10443;DHT22;5269;51.146;16.986;2023-06-14T08:09:05;17.50;99.90
10443;DHT22;5269;51.146;16.986;2023-06-14T08:11:48;17.40;99.90
10443;DHT22;5269;51.146;16.986;2023-06-14T08:14:15;17.60;99.90
10443;DHT22;5269;51.146;16.986;2023-06-14T08:16:45;17.80;99.90
10443;DHT22;5269;51.146;16.986;2023-06-14T08:19:17;18.10;40.60
10443;DHT22;5269;51.146;16.986;2023-06-14T08:21:46;18.30;1.00
10443;DHT22;5269;51.146;16.986;2023-06-14T08:24:23;18.50;1.00
10443;DHT22;5269;51.146;16.986;2023-06-14T08:26:57;18.60;1.00
10443;DHT22;5269;51.146;16.986;2023-06-14T08:29:26;18.80;1.00
10443;DHT22;5269;51.146;16.986;2023-06-14T08:31:56;18.40;1.00
10443;DHT22;5269;51.146;16.986;2023-06-14T08:34:27;18.40;1.00
10443;DHT22;5269;51.146;16.986;2023-06-14T08:37:22;18.40;1.00
10443;DHT22;5269;51.146;16.986;2023-06-14T08:39:57;18.60;1.00
10443;DHT22;5269;51.146;16.986;2023-06-14T08:42:28;18.70;1.00
10443;DHT22;5269;51.146;16.986;2023-06-14T08:44:58;18.80;99.90
10443;DHT22;5269;51.146;16.986;2023-06-14T08:47:27;18.80;99.90
10443;DHT22;5269;51.146;16.986;2023-06-14T08:49:58;18.90;99.90
10443;DHT22;5269;51.146;16.986;2023-06-14T08:52:38;18.70;99.90
10443;DHT22;5269;51.146;16.986;2023-06-14T08:55:06;18.70;99.90
10443;DHT22;5269;51.146;16.986;2023-06-14T08:57:39;18.70;99.90
10443;DHT22;5269;51.146;16.986;2023-06-14T09:00:17;18.80;99.90
10443;DHT22;5269;51.146;16.986;2023-06-14T09:02:46;18.80;99.90
10443;DHT22;5269;51.146;16.986;2023-06-14T09:05:14;18.80;99.90
10443;DHT22;5269;51.146;16.986;2023-06-14T09:07:45;18.90;99.90
10443;DHT22;5269;51.146;16.986;2023-06-14T09:10:17;19.10;99.90
10443;DHT22;5269;51.146;16.986;2023-06-14T09:12:47;19.30;99.90
10443;DHT22;5269;51.146;16.986;2023-06-14T09:15:16;19.30;99.90
10443;DHT22;5269;51.146;16.986;2023-06-14T09:18:19;19.30;99.90
10443;DHT22;5269;51.146;16.986;2023-06-14T09:20:44;19.50;99.90
10443;DHT22;5269;51.146;16.986;2023-06-14T09:23:16;19.80;8.00
10443;DHT22;5269;51.146;16.986;2023-06-14T09:25:56;19.60;1.00
10443;DHT22;5269;51.146;16.986;2023-06-14T09:28:28;19.40;70.20
10443;DHT22;5269;51.146;16.986;2023-06-14T09:30:57;19.20;99.90
10443;DHT22;5269;51.146;16.986;2023-06-14T09:33:27;19.00;99.90
10443;DHT22;5269;51.146;16.986;2023-06-14T09:35:56;18.90;99.90
10443;DHT22;5269;51.146;16.986;2023-06-14T09:38:24;18.80;99.90
10443;DHT22;5269;51.146;16.986;2023-06-14T09:40:58;18.60;99.90
10443;DHT22;5269;51.146;16.986;2023-06-14T09:43:28;18.60;99.90
10443;DHT22;5269;51.146;16.986;2023-06-14T09:45:56;18.30;99.90
10443;DHT22;5269;51.146;16.986;2023-06-14T09:48:29;18.20;99.90
10443;DHT22;5269;51.146;16.986;2023-06-14T09:51:00;18.20;99.90
10443;DHT22;5269;51.146;16.986;2023-06-14T09:53:35;18.20;1.00
10443;DHT22;5269;51.146;16.986;2023-06-14T09:56:05;18.20;1.00
10443;DHT22;5269;51.146;16.986;2023-06-14T09:58:39;18.10;1.00
10443;DHT22;5269;51.146;16.986;2023-06-14T10:01:18;18.20;1.00
10443;DHT22;5269;51.146;16.986;2023-06-14T10:03:46;18.20;1.00
10443;DHT22;5269;51.146;16.986;2023-06-14T10:06:20;18.20;1.00
10443;DHT22;5269;51.146;16.986;2023-06-14T10:08:59;18.60;1.00
10443;DHT22;5269;51.146;16.986;2023-06-14T10:11:39;19.00;1.00
10443;DHT22;5269;51.146;16.986;2023-06-14T10:14:17;19.20;99.90
10443;DHT22;5269;51.146;16.986;2023-06-14T10:16:56;19.10;99.90
10443;DHT22;5269;51.146;16.986;2023-06-14T10:19:27;19.40;99.90
10443;DHT22;5269;51.146;16.986;2023-06-14T10:22:09;19.60;1.00
10443;DHT22;5269;51.146;16.986;2023-06-14T10:24:43;19.80;1.00
10443;DHT22;5269;51.146;16.986;2023-06-14T10:27:19;20.00;1.00
10443;DHT22;5269;51.146;16.986;2023-06-14T10:30:08;20.00;1.00
10443;DHT22;5269;51.146;16.986;2023-06-14T10:32:35;20.40;1.00
10443;DHT22;5269;51.146;16.986;2023-06-14T10:35:26;20.40;1.00
10443;DHT22;5269;51.146;16.986;2023-06-14T10:38:06;20.70;1.00
10443;DHT22;5269;51.146;16.986;2023-06-14T10:40:34;21.00;1.00
10443;DHT22;5269;51.146;16.986;2023-06-14T10:43:23;21.10;1.00
10443;DHT22;5269;51.146;16.986;2023-06-14T10:46:15;21.00;1.00
10443;DHT22;5269;51.146;16.986;2023-06-14T10:48:43;20.80;1.00
10443;DHT22;5269;51.146;16.986;2023-06-14T10:51:19;20.70;1.00
10443;DHT22;5269;51.146;16.986;2023-06-14T10:53:47;20.60;1.00
10443;DHT22;5269;51.146;16.986;2023-06-14T10:56:27;20.70;1.00
10443;DHT22;5269;51.146;16.986;2023-06-14T10:59:09;20.50;1.00
10443;DHT22;5269;51.146;16.986;2023-06-14T11:01:37;20.30;1.00
10443;DHT22;5269;51.146;16.986;2023-06-14T11:04:09;20.50;1.00
10443;DHT22;5269;51.146;16.986;2023-06-14T11:06:47;20.50;1.00
10443;DHT22;5269;51.146;16.986;2023-06-14T11:12:28;20.60;1.00
10443;DHT22;5269;51.146;16.986;2023-06-14T11:15:03;20.60;1.00
10443;DHT22;5269;51.146;16.986;2023-06-14T11:17:38;20.70;1.00
10443;DHT22;5269;51.146;16.986;2023-06-14T11:20:09;20.70;1.00
10443;DHT22;5269;51.146;16.986;2023-06-14T11:22:45;21.00;1.00
10443;DHT22;5269;51.146;16.986;2023-06-14T11:25:18;21.10;1.00
10443;DHT22;5269;51.146;16.986;2023-06-14T11:27:49;21.10;1.00
10443;DHT22;5269;51.146;16.986;2023-06-14T11:30:36;20.70;1.00
10443;DHT22;5269;51.146;16.986;2023-06-14T11:33:03;20.50;1.00
10443;DHT22;5269;51.146;16.986;2023-06-14T11:35:34;20.40;1.00
10443;DHT22;5269;51.146;16.986;2023-06-14T11:38:10;20.40;1.00
10443;DHT22;5269;51.146;16.986;2023-06-14T11:40:47;20.40;1.00
10443;DHT22;5269;51.146;16.986;2023-06-14T11:43:19;20.30;1.00
10443;DHT22;5269;51.146;16.986;2023-06-14T11:45:57;20.00;1.00
10443;DHT22;5269;51.146;16.986;2023-06-14T11:48:38;20.00;1.00
10443;DHT22;5269;51.146;16.986;2023-06-14T11:51:07;19.90;1.00
10443;DHT22;5269;51.146;16.986;2023-06-14T11:53:37;19.80;1.00
10443;DHT22;5269;51.146;16.986;2023-06-14T11:56:07;19.70;1.00
10443;DHT22;5269;51.146;16.986;2023-06-14T11:58:37;19.60;1.00
10443;DHT22;5269;51.146;16.986;2023-06-14T12:01:06;19.60;1.00
10443;DHT22;5269;51.146;16.986;2023-06-14T12:03:35;19.60;1.00
10443;DHT22;5269;51.146;16.986;2023-06-14T12:06:08;19.50;1.00
10443;DHT22;5269;51.146;16.986;2023-06-14T12:08:46;19.80;1.00
10443;DHT22;5269;51.146;16.986;2023-06-14T12:11:16;20.00;1.00
10443;DHT22;5269;51.146;16.986;2023-06-14T12:13:45;20.30;1.00
10443;DHT22;5269;51.146;16.986;2023-06-14T12:16:16;20.30;1.00
10443;DHT22;5269;51.146;16.986;2023-06-14T12:18:45;20.50;1.00
10443;DHT22;5269;51.146;16.986;2023-06-14T12:21:24;20.70;1.00
10443;DHT22;5269;51.146;16.986;2023-06-14T12:23:58;20.60;1.00
10443;DHT22;5269;51.146;16.986;2023-06-14T12:26:27;20.40;1.00
10443;DHT22;5269;51.146;16.986;2023-06-14T12:28:54;20.30;1.00
10443;DHT22;5269;51.146;16.986;2023-06-14T12:31:27;20.00;1.00
10443;DHT22;5269;51.146;16.986;2023-06-14T12:33:57;19.80;1.00
10443;DHT22;5269;51.146;16.986;2023-06-14T12:36:26;19.50;1.00
10443;DHT22;5269;51.146;16.986;2023-06-14T12:38:59;19.30;1.00
10443;DHT22;5269;51.146;16.986;2023-06-14T12:41:29;19.30;29.50
10443;DHT22;5269;51.146;16.986;2023-06-14T12:44:07;19.00;91.00
10443;DHT22;5269;51.146;16.986;2023-06-14T12:46:37;18.80;99.90
10443;DHT22;5269;51.146;16.986;2023-06-14T12:49:08;18.60;99.90
10443;DHT22;5269;51.146;16.986;2023-06-14T12:51:38;18.40;99.90
10443;DHT22;5269;51.146;16.986;2023-06-14T12:54:07;18.40;99.90
10443;DHT22;5269;51.146;16.986;2023-06-14T12:56:38;18.40;1.00
10443;DHT22;5269;51.146;16.986;2023-06-14T12:59:07;18.60;99.90
10443;DHT22;5269;51.146;16.986;2023-06-14T13:01:40;18.70;99.90
10443;DHT22;5269;51.146;16.986;2023-06-14T13:04:19;18.80;99.90
10443;DHT22;5269;51.146;16.986;2023-06-14T13:06:46;18.90;99.90
10443;DHT22;5269;51.146;16.986;2023-06-14T13:09:18;18.90;18.30
10443;DHT22;5269;51.146;16.986;2023-06-14T13:11:47;18.90;5.20
10443;DHT22;5269;51.146;16.986;2023-06-14T13:14:16;18.90;1.80
10443;DHT22;5269;51.146;16.986;2023-06-14T13:16:49;19.00;1.00
10443;DHT22;5269;51.146;16.986;2023-06-14T13:19:18;19.10;1.00
10443;DHT22;5269;51.146;16.986;2023-06-14T13:21:47;19.10;1.00
10443;DHT22;5269;51.146;16.986;2023-06-14T13:24:17;19.10;1.00
10443;DHT22;5269;51.146;16.986;2023-06-14T13:26:47;19.10;1.00
10443;DHT22;5269;51.146;16.986;2023-06-14T13:29:19;19.00;1.00
10443;DHT22;5269;51.146;16.986;2023-06-14T13:31:57;18.90;1.00
10443;DHT22;5269;51.146;16.986;2023-06-14T13:34:26;18.90;1.00
10443;DHT22;5269;51.146;16.986;2023-06-14T13:36:59;18.80;1.00
10443;DHT22;5269;51.146;16.986;2023-06-14T13:39:26;18.80;1.00
10443;DHT22;5269;51.146;16.986;2023-06-14T13:41:54;18.70;5.90
10443;DHT22;5269;51.146;16.986;2023-06-14T13:44:21;18.60;16.90
10443;DHT22;5269;51.146;16.986;2023-06-14T13:46:59;18.60;90.80
10443;DHT22;5269;51.146;16.986;2023-06-14T13:49:36;18.60;99.90
10443;DHT22;5269;51.146;16.986;2023-06-14T13:52:06;18.60;99.90
10443;DHT22;5269;51.146;16.986;2023-06-14T13:54:33;18.70;99.90
10443;DHT22;5269;51.146;16.986;2023-06-14T13:57:04;18.50;99.90
10443;DHT22;5269;51.146;16.986;2023-06-14T13:59:32;18.60;93.20
10443;DHT22;5269;51.146;16.986;2023-06-14T14:02:01;18.70;39.00
10443;DHT22;5269;51.146;16.986;2023-06-14T14:04:28;18.70;56.20
10443;DHT22;5269;51.146;16.986;2023-06-14T14:06:57;18.90;1.00
10443;DHT22;5269;51.146;16.986;2023-06-14T14:09:26;18.90;1.00
10443;DHT22;5269;51.146;16.986;2023-06-14T14:11:56;19.10;1.00
10443;DHT22;5269;51.146;16.986;2023-06-14T14:14:29;19.10;1.00
10443;DHT22;5269;51.146;16.986;2023-06-14T14:16:56;19.20;1.00
10443;DHT22;5269;51.146;16.986;2023-06-14T14:19:25;19.10;1.00
10443;DHT22;5269;51.146;16.986;2023-06-14T14:21:57;19.20;1.00
10443;DHT22;5269;51.146;16.986;2023-06-14T14:24:25;19.10;1.00
10443;DHT22;5269;51.146;16.986;2023-06-14T14:26:52;19.10;1.00
10443;DHT22;5269;51.146;16.986;2023-06-14T14:29:19;19.10;1.00
10443;DHT22;5269;51.146;16.986;2023-06-14T14:31:49;19.00;1.00
10443;DHT22;5269;51.146;16.986;2023-06-14T14:34:16;19.00;1.00
10443;DHT22;5269;51.146;16.986;2023-06-14T14:36:43;19.10;1.00
10443;DHT22;5269;51.146;16.986;2023-06-14T14:39:10;19.20;1.00
10443;DHT22;5269;51.146;16.986;2023-06-14T14:41:39;19.30;1.00
10443;DHT22;5269;51.146;16.986;2023-06-14T14:44:06;19.40;1.00
10443;DHT22;5269;51.146;16.986;2023-06-14T14:46:33;19.60;1.00
10443;DHT22;5269;51.146;16.986;2023-06-14T14:49:02;19.50;1.00
10443;DHT22;5269;51.146;16.986;2023-06-14T14:51:29;19.40;1.00
10443;DHT22;5269;51.146;16.986;2023-06-14T14:53:55;19.40;1.00
10443;DHT22;5269;51.146;16.986;2023-06-14T14:56:23;19.30;1.00
10443;DHT22;5269;51.146;16.986;2023-06-14T14:58:51;19.30;1.00
10443;DHT22;5269;51.146;16.986;2023-06-14T15:01:18;19.40;1.00
10443;DHT22;5269;51.146;16.986;2023-06-14T15:03:45;19.50;1.00
10443;DHT22;5269;51.146;16.986;2023-06-14T15:06:15;19.50;1.00
10443;DHT22;5269;51.146;16.986;2023-06-14T15:08:43;19.50;1.00
10443;DHT22;5269;51.146;16.986;2023-06-14T15:11:10;19.50;1.00
10443;DHT22;5269;51.146;16.986;2023-06-14T15:13:37;19.70;1.00
10443;DHT22;5269;51.146;16.986;2023-06-14T15:16:09;19.80;1.00
10443;DHT22;5269;51.146;16.986;2023-06-14T15:18:36;19.90;1.00
10443;DHT22;5269;51.146;16.986;2023-06-14T15:21:03;19.90;1.00
10443;DHT22;5269;51.146;16.986;2023-06-14T15:23:32;20.20;1.00
10443;DHT22;5269;51.146;16.986;2023-06-14T15:25:59;20.70;1.00
10443;DHT22;5269;51.146;16.986;2023-06-14T15:28:29;20.70;1.00
10443;DHT22;5269;51.146;16.986;2023-06-14T15:30:58;20.70;1.00
10443;DHT22;5269;51.146;16.986;2023-06-14T15:33:26;20.70;1.00
10443;DHT22;5269;51.146;16.986;2023-06-14T15:35:53;20.90;1.00
10443;DHT22;5269;51.146;16.986;2023-06-14T15:38:23;20.70;1.00
10443;DHT22;5269;51.146;16.986;2023-06-14T15:40:58;20.60;1.00
10443;DHT22;5269;51.146;16.986;2023-06-14T15:43:38;20.50;1.00
10443;DHT22;5269;51.146;16.986;2023-06-14T15:46:05;20.40;1.00
10443;DHT22;5269;51.146;16.986;2023-06-14T15:48:35;20.60;1.00
10443;DHT22;5269;51.146;16.986;2023-06-14T15:51:05;20.60;1.00
10443;DHT22;5269;51.146;16.986;2023-06-14T15:53:36;20.80;1.00
10443;DHT22;5269;51.146;16.986;2023-06-14T15:56:04;21.50;1.00
10443;DHT22;5269;51.146;16.986;2023-06-14T15:58:31;21.80;1.00
10443;DHT22;5269;51.146;16.986;2023-06-14T16:01:00;21.80;1.00
10443;DHT22;5269;51.146;16.986;2023-06-14T16:03:34;21.70;1.00
10443;DHT22;5269;51.146;16.986;2023-06-14T16:06:23;21.40;1.00
10443;DHT22;5269;51.146;16.986;2023-06-14T16:08:50;21.00;1.00
10443;DHT22;5269;51.146;16.986;2023-06-14T16:11:19;20.80;1.00